Time;durP1;ratioP1;P1;durP2;ratioP2;P2;SDS_P1;SDS_P2;PMS_P1;PMS_P2;Temp;Humidity;BMP_temperature;BMP_pressure;BME280_temperature;BME280_humidity;BME280_pressure;Samples;Min_cycle;Max_cycle;Signal;HPM_P1;HPM_P2
2022/04/15 00:01:17;;;;;;;;;;;14.60;99.90;;;;;;5055324;28;19904;-81
2022/04/15 00:03:43;;;;;;;;;;;14.50;99.90;;;;;;5037037;28;19905;-80
2022/04/15 00:06:10;;;;;;;;;;;14.50;99.90;;;;;;5054859;28;20312;-82
2022/04/15 00:08:36;;;;;;;;;;;14.40;99.90;;;;;;5054852;28;20379;-80
2022/04/15 00:11:02;;;;;;;;;;;14.30;99.90;;;;;;5036831;28;19963;-79
2022/04/15 00:13:29;;;;;;;;;;;14.10;99.90;;;;;;5054749;28;19912;-81
2022/04/15 00:15:55;;;;;;;;;;;14.20;99.90;;;;;;5054554;28;19908;-81
2022/04/15 00:18:21;;;;;;;;;;;14.30;99.90;;;;;;5054626;28;19912;-82
2022/04/15 00:20:47;;;;;;;;;;;14.40;99.90;;;;;;5036683;28;20395;-80
2022/04/15 00:23:12;;;;;;;;;;;14.40;99.90;;;;;;5054669;28;19931;-79
2022/04/15 00:25:38;;;;;;;;;;;14.50;99.90;;;;;;5054487;28;19904;-82
2022/04/15 00:28:04;;;;;;;;;;;14.40;99.90;;;;;;5036576;28;19904;-80
2022/04/15 00:30:29;;;;;;;;;;;14.20;99.90;;;;;;5054537;28;19904;-78
2022/04/15 00:32:55;;;;;;;;;;;13.80;99.90;;;;;;5054603;28;19905;-81
2022/04/15 00:35:20;;;;;;;;;;;13.70;99.90;;;;;;5054239;28;20027;-81
2022/04/15 00:37:46;;;;;;;;;;;13.70;99.90;;;;;;5036311;28;20332;-80
2022/04/15 00:40:12;;;;;;;;;;;13.80;99.90;;;;;;5036307;28;19995;-79
2022/04/15 00:42:38;;;;;;;;;;;13.90;99.90;;;;;;5036236;28;19947;-80
2022/04/15 00:45:04;;;;;;;;;;;14.00;99.90;;;;;;5053612;28;19909;-80
2022/04/15 00:47:42;;;;;;;;;;;14.10;99.90;;;;;;5036112;28;20330;-80
2022/04/15 00:50:07;;;;;;;;;;;14.10;99.90;;;;;;5054005;28;20421;-79
2022/04/15 00:52:40;;;;;;;;;;;14.00;99.90;;;;;;5053975;28;19992;-79
2022/04/15 00:55:06;;;;;;;;;;;13.90;99.90;;;;;;5054068;28;19916;-79
2022/04/15 00:57:34;;;;;;;;;;;13.90;99.90;;;;;;5035983;28;20050;-79
2022/04/15 01:00:00;;;;;;;;;;;14.00;99.90;;;;;;5036026;28;20326;-80
2022/04/15 01:02:28;;;;;;;;;;;13.90;99.90;;;;;;5054225;28;19927;-79
2022/04/15 01:04:55;;;;;;;;;;;13.80;99.90;;;;;;5035869;28;19912;-81
2022/04/15 01:07:22;;;;;;;;;;;13.70;99.90;;;;;;5035841;28;20269;-78
2022/04/15 01:09:50;;;;;;;;;;;13.70;99.90;;;;;;5053596;28;20295;-80
2022/04/15 01:12:17;;;;;;;;;;;13.60;99.90;;;;;;5053735;28;19995;-80
2022/04/15 01:14:43;;;;;;;;;;;13.60;99.90;;;;;;5035726;28;19958;-79
2022/04/15 01:17:09;;;;;;;;;;;13.20;99.90;;;;;;5035708;28;20454;-81
2022/04/15 01:19:34;;;;;;;;;;;12.70;99.90;;;;;;5053587;28;19908;-80
2022/04/15 01:22:02;;;;;;;;;;;12.70;99.90;;;;;;5053612;28;19928;-81
2022/04/15 01:24:28;;;;;;;;;;;12.80;99.90;;;;;;5053527;28;20357;-79
2022/04/15 01:26:54;;;;;;;;;;;13.10;99.90;;;;;;5053726;28;19953;-79
2022/04/15 01:29:19;;;;;;;;;;;13.30;99.90;;;;;;5053479;28;19983;-80
2022/04/15 01:31:45;;;;;;;;;;;13.40;99.90;;;;;;5053620;28;19909;-79
2022/04/15 01:34:11;;;;;;;;;;;13.40;99.90;;;;;;5053201;28;20006;-79
2022/04/15 01:36:36;;;;;;;;;;;13.50;99.90;;;;;;5053743;28;20268;-81
2022/04/15 01:39:02;;;;;;;;;;;13.40;99.90;;;;;;5053333;28;19912;-80
2022/04/15 01:41:27;;;;;;;;;;;13.30;99.90;;;;;;5053769;28;19932;-79
2022/04/15 01:43:53;;;;;;;;;;;13.20;99.90;;;;;;5053341;28;20281;-80
2022/04/15 01:46:19;;;;;;;;;;;13.20;99.90;;;;;;5035398;28;19940;-80
2022/04/15 01:48:44;;;;;;;;;;;13.20;99.90;;;;;;5053270;28;19912;-80
2022/04/15 01:51:10;;;;;;;;;;;13.30;99.90;;;;;;5053340;28;19909;-80
2022/04/15 01:53:35;;;;;;;;;;;13.10;99.90;;;;;;5053240;28;20253;-79
2022/04/15 01:56:01;;;;;;;;;;;12.90;99.90;;;;;;5036319;28;19909;-80
2022/04/15 01:58:27;;;;;;;;;;;12.90;99.90;;;;;;5039284;28;19912;-80
2022/04/15 02:00:52;;;;;;;;;;;12.80;99.90;;;;;;5057266;28;19940;-81
2022/04/15 02:03:18;;;;;;;;;;;12.80;99.90;;;;;;5039298;28;19979;-80
2022/04/15 02:05:43;;;;;;;;;;;12.40;99.90;;;;;;5057107;28;20349;-80
2022/04/15 02:08:09;;;;;;;;;;;12.40;99.90;;;;;;5039175;28;19908;-80
2022/04/15 02:10:34;;;;;;;;;;;12.20;99.90;;;;;;5056947;28;20285;-81
2022/04/15 02:13:00;;;;;;;;;;;12.50;99.90;;;;;;5057206;28;19904;-81
2022/04/15 02:15:26;;;;;;;;;;;12.50;99.90;;;;;;5038923;28;19908;-81
2022/04/15 02:17:51;;;;;;;;;;;12.90;99.90;;;;;;5057277;28;19905;-81
2022/04/15 02:20:17;;;;;;;;;;;13.00;99.90;;;;;;5056890;28;19938;-81
2022/04/15 02:22:42;;;;;;;;;;;12.90;99.90;;;;;;5038908;28;19904;-80
2022/04/15 02:25:08;;;;;;;;;;;12.80;99.90;;;;;;5038879;28;20384;-79
2022/04/15 02:27:34;;;;;;;;;;;12.80;99.90;;;;;;5038797;28;19995;-80
2022/04/15 02:29:59;;;;;;;;;;;12.90;99.90;;;;;;5057024;28;19912;-81
2022/04/15 02:32:25;;;;;;;;;;;12.90;99.90;;;;;;5056709;28;20350;-81
2022/04/15 02:34:51;;;;;;;;;;;12.80;99.90;;;;;;5057348;28;19916;-80
2022/04/15 02:37:17;;;;;;;;;;;12.80;99.90;;;;;;5076872;28;19999;-80
2022/04/15 02:39:42;;;;;;;;;;;12.80;99.90;;;;;;5075183;28;19908;-79
2022/04/15 02:42:08;;;;;;;;;;;12.80;99.90;;;;;;5076594;28;19905;-79
2022/04/15 02:44:36;;;;;;;;;;;12.80;99.90;;;;;;5076522;28;19908;-81
2022/04/15 02:47:01;;;;;;;;;;;12.60;99.90;;;;;;5076386;28;19904;-80
2022/04/15 02:49:27;;;;;;;;;;;12.50;99.90;;;;;;5076564;28;20276;-80
2022/04/15 02:51:53;;;;;;;;;;;12.30;99.90;;;;;;5076782;28;19905;-80
2022/04/15 02:54:18;;;;;;;;;;;12.20;99.90;;;;;;5075019;28;19908;-80
2022/04/15 02:56:44;;;;;;;;;;;12.30;99.90;;;;;;5076524;28;20356;-80
2022/04/15 02:59:10;;;;;;;;;;;12.40;99.90;;;;;;5076324;28;19911;-80
2022/04/15 03:01:35;;;;;;;;;;;12.60;99.90;;;;;;5076250;28;20360;-80
2022/04/15 03:04:01;;;;;;;;;;;12.70;99.90;;;;;;5076571;28;19904;-82
2022/04/15 03:06:26;;;;;;;;;;;12.60;99.90;;;;;;5075858;28;19912;-80
2022/04/15 03:08:52;;;;;;;;;;;12.60;99.90;;;;;;5076133;28;19904;-81
2022/04/15 03:11:18;;;;;;;;;;;12.60;99.90;;;;;;5075996;28;20383;-80
2022/04/15 03:13:44;;;;;;;;;;;12.60;99.90;;;;;;5076001;28;19905;-80
2022/04/15 03:16:10;;;;;;;;;;;12.60;99.90;;;;;;5074720;28;19958;-80
2022/04/15 03:18:36;;;;;;;;;;;12.30;99.90;;;;;;5074626;28;20340;-82
2022/04/15 03:21:02;;;;;;;;;;;12.00;99.90;;;;;;5074573;28;20296;-79
2022/04/15 03:23:28;;;;;;;;;;;11.80;99.90;;;;;;5075878;28;19904;-80
2022/04/15 03:25:54;;;;;;;;;;;11.70;99.90;;;;;;5075873;28;20387;-80
2022/04/15 03:28:20;;;;;;;;;;;11.70;99.90;;;;;;5075751;28;19904;-82
2022/04/15 03:30:46;;;;;;;;;;;11.70;99.90;;;;;;5074426;28;19905;-81
2022/04/15 03:33:11;;;;;;;;;;;11.60;99.90;;;;;;5075875;28;19904;-81
2022/04/15 03:35:37;;;;;;;;;;;11.60;99.90;;;;;;5057765;28;20371;-80
2022/04/15 03:38:02;;;;;;;;;;;11.70;99.90;;;;;;5055573;28;19905;-80
2022/04/15 03:40:28;;;;;;;;;;;12.00;99.90;;;;;;5055466;28;19987;-80
2022/04/15 03:42:55;;;;;;;;;;;12.10;99.90;;;;;;5055445;28;19905;-80
2022/04/15 03:45:22;;;;;;;;;;;12.20;99.90;;;;;;5037571;28;20284;-80
2022/04/15 03:47:50;;;;;;;;;;;12.10;99.90;;;;;;5037429;28;19911;-80
2022/04/15 03:50:16;;;;;;;;;;;12.00;99.90;;;;;;5037401;28;20284;-80
2022/04/15 03:52:44;;;;;;;;;;;11.80;99.90;;;;;;5037336;28;19912;-79
2022/04/15 03:55:10;;;;;;;;;;;11.50;99.90;;;;;;5055375;28;19919;-80
2022/04/15 03:57:36;;;;;;;;;;;11.20;99.90;;;;;;5055198;28;19905;-80
2022/04/15 04:00:04;;;;;;;;;;;11.10;99.90;;;;;;5037202;28;19912;-80
2022/04/15 04:02:30;;;;;;;;;;;11.40;99.90;;;;;;5055533;28;19915;-80
2022/04/15 04:04:55;;;;;;;;;;;11.60;99.90;;;;;;5055032;28;20268;-79
2022/04/15 04:07:21;;;;;;;;;;;11.80;99.90;;;;;;5055084;28;19905;-80
2022/04/15 04:09:46;;;;;;;;;;;11.60;99.90;;;;;;5055016;28;20357;-80
2022/04/15 04:12:12;;;;;;;;;;;11.60;99.90;;;;;;5054874;28;19911;-79
2022/04/15 04:14:38;;;;;;;;;;;11.50;99.90;;;;;;5055168;28;20373;-81
2022/04/15 04:17:03;;;;;;;;;;;11.50;99.90;;;;;;5036968;28;19911;-79
2022/04/15 04:19:29;;;;;;;;;;;11.60;99.90;;;;;;5053915;28;19954;-79
2022/04/15 04:21:55;;;;;;;;;;;11.60;99.90;;;;;;5037103;28;19987;-81
2022/04/15 04:24:20;;;;;;;;;;;11.50;99.90;;;;;;5036793;28;20360;-79
2022/04/15 04:26:46;;;;;;;;;;;11.50;99.90;;;;;;5054640;28;19952;-80
2022/04/15 04:29:11;;;;;;;;;;;11.50;99.90;;;;;;5036671;28;19905;-80
2022/04/15 04:31:37;;;;;;;;;;;11.30;99.90;;;;;;5036625;28;19905;-80
2022/04/15 04:34:02;;;;;;;;;;;11.30;99.90;;;;;;5054291;28;20383;-80
2022/04/15 04:36:28;;;;;;;;;;;11.40;99.90;;;;;;5054541;28;19911;-79
2022/04/15 04:38:53;;;;;;;;;;;11.40;99.90;;;;;;5054429;28;19912;-80
2022/04/15 04:41:19;;;;;;;;;;;11.40;99.90;;;;;;5054314;28;20005;-79
2022/04/15 04:43:45;;;;;;;;;;;11.20;99.90;;;;;;5054556;28;19904;-80
2022/04/15 04:46:10;;;;;;;;;;;11.40;99.90;;;;;;5036345;28;19948;-79
2022/04/15 04:48:36;;;;;;;;;;;11.20;99.90;;;;;;5054244;28;20000;-82
2022/04/15 04:51:01;;;;;;;;;;;11.30;99.90;;;;;;5054225;28;19982;-80
2022/04/15 04:53:27;;;;;;;;;;;11.40;99.90;;;;;;5036246;28;19940;-80
2022/04/15 04:55:53;;;;;;;;;;;11.30;99.90;;;;;;5054050;28;19909;-80
2022/04/15 04:58:18;;;;;;;;;;;11.30;99.90;;;;;;5054056;28;20242;-79
2022/04/15 05:00:44;;;;;;;;;;;10.90;99.90;;;;;;5036174;28;19909;-81
2022/04/15 05:03:10;;;;;;;;;;;10.70;99.90;;;;;;5054010;28;19909;-80
2022/04/15 05:05:35;;;;;;;;;;;10.90;99.90;;;;;;5054251;28;19904;-80
2022/04/15 05:08:01;;;;;;;;;;;10.90;99.90;;;;;;5053924;28;19905;-81
2022/04/15 05:10:26;;;;;;;;;;;11.00;99.90;;;;;;5053798;28;19943;-80
2022/04/15 05:12:52;;;;;;;;;;;11.10;99.90;;;;;;5035994;28;19904;-79
2022/04/15 05:15:19;;;;;;;;;;;11.20;99.90;;;;;;5053887;28;19915;-78
2022/04/15 05:17:44;;;;;;;;;;;11.30;99.90;;;;;;5035922;28;19912;-80
2022/04/15 05:20:10;;;;;;;;;;;11.00;99.90;;;;;;5053895;28;19905;-79
2022/04/15 05:22:36;;;;;;;;;;;10.90;99.90;;;;;;5053706;28;20363;-79
2022/04/15 05:25:02;;;;;;;;;;;11.20;99.90;;;;;;5035865;28;19954;-81
2022/04/15 05:27:28;;;;;;;;;;;11.30;99.90;;;;;;5053626;28;19905;-79
2022/04/15 05:29:54;;;;;;;;;;;11.40;99.90;;;;;;5053476;28;20361;-78
2022/04/15 05:32:22;;;;;;;;;;;11.50;99.90;;;;;;5053666;28;19954;-80
2022/04/15 05:34:48;;;;;;;;;;;11.20;99.90;;;;;;5053155;28;19971;-80
2022/04/15 05:37:14;;;;;;;;;;;11.10;99.90;;;;;;5053751;28;20373;-78
2022/04/15 05:39:39;;;;;;;;;;;11.10;99.90;;;;;;5053616;28;19931;-80
2022/04/15 05:42:05;;;;;;;;;;;11.40;99.90;;;;;;5035574;28;19912;-78
2022/04/15 05:44:31;;;;;;;;;;;11.60;99.90;;;;;;5053503;28;20383;-79
2022/04/15 05:46:56;;;;;;;;;;;11.70;99.90;;;;;;5053485;28;19951;-80
2022/04/15 05:49:24;;;;;;;;;;;11.60;99.90;;;;;;5035503;28;20462;-78
2022/04/15 05:51:50;;;;;;;;;;;11.70;99.90;;;;;;5053423;28;19909;-79
2022/04/15 05:54:15;;;;;;;;;;;11.80;99.90;;;;;;5053306;28;20357;-80
2022/04/15 05:56:41;;;;;;;;;;;11.80;99.90;;;;;;5053373;28;19958;-80
2022/04/15 05:59:07;;;;;;;;;;;11.80;99.90;;;;;;5035416;28;19936;-80
2022/04/15 06:01:32;;;;;;;;;;;11.80;99.90;;;;;;5053318;28;19905;-81
2022/04/15 06:03:58;;;;;;;;;;;11.80;99.90;;;;;;5035462;28;19944;-79
2022/04/15 06:06:24;;;;;;;;;;;11.90;99.90;;;;;;5053352;28;20425;-80
2022/04/15 06:08:49;;;;;;;;;;;12.10;99.90;;;;;;5053243;28;19996;-81
2022/04/15 06:11:15;;;;;;;;;;;12.20;99.90;;;;;;5053267;28;19908;-81
2022/04/15 06:13:47;;;;;;;;;;;12.40;99.90;;;;;;5035381;28;19916;-81
2022/04/15 06:16:16;;;;;;;;;;;12.50;99.90;;;;;;5034970;28;20411;-80
2022/04/15 06:18:42;;;;;;;;;;;12.60;99.90;;;;;;5053155;28;19978;-80
2022/04/15 06:21:08;;;;;;;;;;;12.80;99.90;;;;;;5035242;28;19945;-81
2022/04/15 06:23:33;;;;;;;;;;;13.10;99.90;;;;;;5035234;28;20353;-80
2022/04/15 06:25:59;;;;;;;;;;;13.60;99.90;;;;;;5035206;28;20030;-80
2022/04/15 06:28:24;;;;;;;;;;;14.00;99.90;;;;;;5035171;28;19919;-79
2022/04/15 06:30:50;;;;;;;;;;;14.20;99.90;;;;;;5053052;28;19904;-80
2022/04/15 06:33:17;;;;;;;;;;;14.60;99.90;;;;;;5035102;28;19992;-78
2022/04/15 06:35:43;;;;;;;;;;;14.60;99.90;;;;;;5052576;28;19967;-78
2022/04/15 06:38:08;;;;;;;;;;;15.30;99.90;;;;;;5035066;28;19908;-81
2022/04/15 06:40:38;;;;;;;;;;;15.50;99.90;;;;;;5052642;28;19984;-81
2022/04/15 06:43:04;;;;;;;;;;;15.50;99.90;;;;;;5037167;28;19905;-79
2022/04/15 06:45:29;;;;;;;;;;;15.40;99.90;;;;;;5056435;28;19909;-81
2022/04/15 06:47:55;;;;;;;;;;;15.30;99.90;;;;;;5057056;28;19905;-81
2022/04/15 06:50:21;;;;;;;;;;;15.70;99.90;;;;;;5056449;28;19988;-81
2022/04/15 06:52:46;;;;;;;;;;;15.90;99.90;;;;;;5056492;28;19905;-78
2022/04/15 06:55:12;;;;;;;;;;;16.10;99.90;;;;;;5038424;28;19909;-80
2022/04/15 06:57:38;;;;;;;;;;;16.20;99.90;;;;;;5038416;28;19982;-80
2022/04/15 07:00:04;;;;;;;;;;;16.40;99.90;;;;;;5056620;28;20376;-80
2022/04/15 07:02:29;;;;;;;;;;;16.70;99.90;;;;;;5038265;28;19908;-79
2022/04/15 07:04:55;;;;;;;;;;;16.90;99.90;;;;;;5056701;28;20365;-79
2022/04/15 07:07:21;;;;;;;;;;;17.10;99.90;;;;;;5056112;28;19999;-80
2022/04/15 07:09:49;;;;;;;;;;;17.20;99.90;;;;;;5056542;28;19912;-79
2022/04/15 07:12:15;;;;;;;;;;;17.30;99.90;;;;;;5056319;28;19905;-80
2022/04/15 07:14:41;;;;;;;;;;;17.50;99.90;;;;;;5056191;28;19920;-82
2022/04/15 07:17:06;;;;;;;;;;;17.80;99.90;;;;;;5055925;28;19905;-82
2022/04/15 07:19:32;;;;;;;;;;;17.60;99.90;;;;;;5038008;28;19951;-82
2022/04/15 07:21:58;;;;;;;;;;;18.10;99.90;;;;;;5056094;28;19909;-80
2022/04/15 07:24:23;;;;;;;;;;;18.40;99.90;;;;;;5055838;28;20410;-79
2022/04/15 07:26:49;;;;;;;;;;;18.80;99.90;;;;;;5055836;28;19967;-81
2022/04/15 07:29:15;;;;;;;;;;;19.20;99.90;;;;;;5056065;28;19912;-81
2022/04/15 07:31:42;;;;;;;;;;;19.90;99.90;;;;;;5037817;28;20298;-80
2022/04/15 07:34:07;;;;;;;;;;;20.50;99.90;;;;;;5055633;28;19912;-79
2022/04/15 07:39:05;;;;;;;;;;;21.40;99.90;;;;;;5055885;28;19905;-81
2022/04/15 07:41:30;;;;;;;;;;;21.90;99.90;;;;;;5055496;28;19905;-80
2022/04/15 07:43:56;;;;;;;;;;;22.60;99.90;;;;;;5055460;28;19970;-80
2022/04/15 07:46:21;;;;;;;;;;;22.80;99.90;;;;;;5055710;28;20032;-81
2022/04/15 07:48:47;;;;;;;;;;;23.50;99.20;;;;;;5055359;28;20258;-79
2022/04/15 07:51:13;;;;;;;;;;;24.00;95.50;;;;;;5055438;28;19958;-80
2022/04/15 07:53:38;;;;;;;;;;;24.00;93.60;;;;;;5055287;28;20391;-80
2022/04/15 07:56:04;;;;;;;;;;;24.00;95.20;;;;;;5055201;28;19909;-81
2022/04/15 07:58:30;;;;;;;;;;;24.70;93.40;;;;;;5037331;28;19959;-81
2022/04/15 08:00:59;;;;;;;;;;;25.20;92.10;;;;;;5055213;28;19905;-81
2022/04/15 08:03:26;;;;;;;;;;;25.10;91.40;;;;;;5055492;28;20331;-80
2022/04/15 08:05:52;;;;;;;;;;;25.80;91.10;;;;;;5037214;28;19912;-80
2022/04/15 08:08:18;;;;;;;;;;;26.40;88.80;;;;;;5055041;28;20272;-80
2022/04/15 08:10:43;;;;;;;;;;;26.30;85.10;;;;;;5054943;28;19905;-81
2022/04/15 08:13:09;;;;;;;;;;;27.30;81.30;;;;;;5037084;28;20395;-82
2022/04/15 08:15:35;;;;;;;;;;;27.80;80.40;;;;;;5054984;28;19916;-80
2022/04/15 08:18:00;;;;;;;;;;;28.30;75.20;;;;;;5054815;28;19927;-82
2022/04/15 08:20:26;;;;;;;;;;;28.90;74.80;;;;;;5054798;28;19904;-81
2022/04/15 08:22:52;;;;;;;;;;;29.30;73.00;;;;;;5054784;28;19952;-80
2022/04/15 08:25:17;;;;;;;;;;;30.00;71.40;;;;;;5036749;28;20280;-81
2022/04/15 08:27:43;;;;;;;;;;;30.40;65.30;;;;;;5054681;28;19954;-82
2022/04/15 08:30:08;;;;;;;;;;;30.40;65.30;;;;;;5054584;28;19995;-82
2022/04/15 08:32:34;;;;;;;;;;;31.10;65.10;;;;;;5054808;28;19995;-81
2022/04/15 08:35:00;;;;;;;;;;;31.50;61.80;;;;;;5054306;28;20300;-80
2022/04/15 08:37:26;;;;;;;;;;;31.90;59.30;;;;;;5054618;28;19936;-82
2022/04/15 08:39:52;;;;;;;;;;;31.70;58.70;;;;;;5054440;28;19950;-80
2022/04/15 08:42:19;;;;;;;;;;;32.10;59.10;;;;;;5054535;28;20372;-81
2022/04/15 08:44:47;;;;;;;;;;;32.60;57.70;;;;;;5054242;28;19909;-80
2022/04/15 08:47:12;;;;;;;;;;;32.20;54.90;;;;;;5036371;28;19978;-83
2022/04/15 08:49:38;;;;;;;;;;;32.60;53.20;;;;;;5054831;28;20234;-80
2022/04/15 08:52:04;;;;;;;;;;;32.60;53.90;;;;;;5054237;28;19912;-82
2022/04/15 08:54:31;;;;;;;;;;;32.40;53.30;;;;;;5054144;28;19915;-81
2022/04/15 08:56:57;;;;;;;;;;;33.20;53.40;;;;;;5036253;28;19904;-81
2022/04/15 08:59:22;;;;;;;;;;;33.20;52.40;;;;;;5054048;28;20315;-81
2022/04/15 09:01:49;;;;;;;;;;;33.90;52.00;;;;;;5036170;28;19905;-82
2022/04/15 09:04:16;;;;;;;;;;;33.90;51.30;;;;;;5035781;28;19905;-81
2022/04/15 09:06:42;;;;;;;;;;;34.20;50.20;;;;;;5053928;28;20388;-80
2022/04/15 09:09:11;;;;;;;;;;;33.90;49.40;;;;;;5053883;28;19905;-81
2022/04/15 09:11:37;;;;;;;;;;;35.30;49.80;;;;;;5035908;28;19904;-81
2022/04/15 09:14:07;;;;;;;;;;;35.70;48.10;;;;;;5054136;28;20254;-82
2022/04/15 09:16:37;;;;;;;;;;;35.30;48.20;;;;;;5053785;28;19905;-82
2022/04/15 09:19:04;;;;;;;;;;;35.70;47.90;;;;;;5053809;28;19936;-81
2022/04/15 09:21:29;;;;;;;;;;;34.30;48.30;;;;;;5036055;28;19908;-81
2022/04/15 09:23:56;;;;;;;;;;;34.70;49.50;;;;;;5053734;28;19905;-83
2022/04/15 09:26:22;;;;;;;;;;;36.00;48.30;;;;;;5053858;28;19959;-80
2022/04/15 09:28:48;;;;;;;;;;;36.80;46.80;;;;;;5053632;28;20353;-82
2022/04/15 09:31:15;;;;;;;;;;;36.60;46.10;;;;;;5050933;28;19912;-81
2022/04/15 09:33:54;;;;;;;;;;;36.80;45.80;;;;;;5046256;28;19908;-82
2022/04/15 09:36:29;;;;;;;;;;;38.60;44.90;;;;;;5053830;28;19939;-82
2022/04/15 09:38:59;;;;;;;;;;;40.00;43.20;;;;;;5053357;28;19915;-82
2022/04/15 09:41:26;;;;;;;;;;;40.20;43.30;;;;;;5031642;28;19970;-81
2022/04/15 09:43:59;;;;;;;;;;;41.40;40.80;;;;;;5016213;28;19905;-82
2022/04/15 09:46:27;;;;;;;;;;;41.60;40.50;;;;;;5016034;28;19916;-82
2022/04/15 09:49:02;;;;;;;;;;;42.40;40.70;;;;;;5033754;28;20361;-83
2022/04/15 09:51:33;;;;;;;;;;;44.20;38.70;;;;;;5033333;28;19905;-81
2022/04/15 09:54:01;;;;;;;;;;;43.90;38.40;;;;;;5015396;28;19905;-81
2022/04/15 09:56:27;;;;;;;;;;;45.60;38.50;;;;;;5033594;28;19944;-80
2022/04/15 09:58:56;;;;;;;;;;;45.40;36.50;;;;;;5033484;28;19912;-81
2022/04/15 10:01:26;;;;;;;;;;;45.60;35.90;;;;;;5033440;28;19905;-81
2022/04/15 10:03:54;;;;;;;;;;;45.40;36.80;;;;;;5033563;28;19930;-81
2022/04/15 10:06:20;;;;;;;;;;;46.20;36.50;;;;;;5015603;28;20283;-80
2022/04/15 10:08:46;;;;;;;;;;;46.90;35.80;;;;;;5033473;28;19991;-78
2022/04/15 10:11:12;;;;;;;;;;;47.60;34.30;;;;;;5033233;28;19912;-79
2022/04/15 10:13:38;;;;;;;;;;;47.30;35.20;;;;;;5015620;28;19963;-78
2022/04/15 10:16:04;;;;;;;;;;;48.10;33.60;;;;;;5015491;28;19909;-77
2022/04/15 10:18:30;;;;;;;;;;;48.50;33.50;;;;;;5036625;28;19971;-77
2022/04/15 10:20:55;;;;;;;;;;;47.20;33.20;;;;;;5037042;28;20361;-78
2022/04/15 10:23:22;;;;;;;;;;;45.80;33.20;;;;;;5019246;28;19912;-78
2022/04/15 10:25:48;;;;;;;;;;;45.70;34.30;;;;;;5037168;28;19905;-78
2022/04/15 10:28:17;;;;;;;;;;;47.20;33.80;;;;;;5019218;28;20372;-79
2022/04/15 10:30:54;;;;;;;;;;;48.60;33.30;;;;;;5036925;28;20369;-78
2022/04/15 10:33:32;;;;;;;;;;;48.10;32.30;;;;;;5037343;28;19939;-78
2022/04/15 10:35:58;;;;;;;;;;;46.90;32.40;;;;;;5036361;28;20412;-81
2022/04/15 10:38:24;;;;;;;;;;;48.50;33.30;;;;;;5036763;28;20384;-80
2022/04/15 10:40:49;;;;;;;;;;;50.20;31.80;;;;;;5036731;28;19909;-80
2022/04/15 10:43:20;;;;;;;;;;;50.70;31.60;;;;;;5019344;28;19927;-79
2022/04/15 10:45:46;;;;;;;;;;;50.80;30.40;;;;;;5019483;28;19905;-80
2022/04/15 10:48:12;;;;;;;;;;;50.00;30.80;;;;;;5036756;28;20000;-78
2022/04/15 10:50:40;;;;;;;;;;;50.20;30.70;;;;;;5036970;28;19912;-80
2022/04/15 10:53:29;;;;;;;;;;;49.40;30.50;;;;;;5018720;28;19908;-78
2022/04/15 10:56:04;;;;;;;;;;;49.30;30.40;;;;;;5037101;28;19912;-80
2022/04/15 10:58:30;;;;;;;;;;;47.80;30.80;;;;;;5040251;28;20365;-77
2022/04/15 11:01:14;;;;;;;;;;;48.50;31.60;;;;;;5042054;28;19905;-79
2022/04/15 11:03:42;;;;;;;;;;;49.10;30.90;;;;;;5046604;28;19915;-78
2022/04/15 11:06:09;;;;;;;;;;;49.30;30.80;;;;;;5045562;28;19967;-78
2022/04/15 11:08:45;;;;;;;;;;;47.50;30.80;;;;;;5026860;28;20277;-77
2022/04/15 11:11:11;;;;;;;;;;;48.80;31.20;;;;;;5043185;28;19905;-78
2022/04/15 11:13:40;;;;;;;;;;;49.10;31.60;;;;;;5044456;28;20280;-79
2022/04/15 11:16:12;;;;;;;;;;;48.50;31.00;;;;;;5044933;28;19915;-76
2022/04/15 11:18:50;;;;;;;;;;;49.00;31.20;;;;;;5044432;28;19975;-78
2022/04/15 11:21:19;;;;;;;;;;;48.20;31.30;;;;;;5044630;28;19912;-77
2022/04/15 11:23:46;;;;;;;;;;;49.50;31.60;;;;;;5020946;28;19912;-80
2022/04/15 11:26:12;;;;;;;;;;;48.40;31.20;;;;;;5036028;28;19905;-76
2022/04/15 11:28:39;;;;;;;;;;;47.70;31.80;;;;;;5035576;28;20362;-76
2022/04/15 11:31:25;;;;;;;;;;;47.00;31.90;;;;;;5035783;28;19905;-78
2022/04/15 11:33:51;;;;;;;;;;;45.00;31.60;;;;;;5035501;28;20000;-78
2022/04/15 11:36:21;;;;;;;;;;;39.20;35.00;;;;;;5056025;28;19995;-79
2022/04/15 11:38:47;;;;;;;;;;;35.50;37.70;;;;;;5055734;28;19904;-79
2022/04/15 11:41:16;;;;;;;;;;;33.20;41.00;;;;;;5055661;28;20371;-78
2022/04/15 11:43:46;;;;;;;;;;;31.50;43.40;;;;;;5055540;28;19904;-77
2022/04/15 11:46:12;;;;;;;;;;;30.10;45.20;;;;;;5055709;28;20285;-78
2022/04/15 11:48:38;;;;;;;;;;;30.40;44.70;;;;;;5054408;28;19905;-77
2022/04/15 11:51:04;;;;;;;;;;;30.10;45.00;;;;;;5055387;28;19954;-77
2022/04/15 11:53:30;;;;;;;;;;;29.90;45.70;;;;;;5055298;28;19928;-77
2022/04/15 11:55:58;;;;;;;;;;;29.90;45.70;;;;;;5053930;28;19913;-77
2022/04/15 11:58:24;;;;;;;;;;;29.80;45.50;;;;;;5055296;28;19905;-76
2022/04/15 12:00:57;;;;;;;;;;;30.00;45.60;;;;;;5055195;28;19951;-77
2022/04/15 12:03:23;;;;;;;;;;;30.10;45.70;;;;;;5055164;28;20407;-77
2022/04/15 12:05:49;;;;;;;;;;;30.10;46.10;;;;;;5055312;28;20315;-77
2022/04/15 12:08:16;;;;;;;;;;;30.10;45.80;;;;;;5055155;28;19927;-76
2022/04/15 12:10:42;;;;;;;;;;;30.20;46.00;;;;;;5054927;28;19908;-78
2022/04/15 12:13:08;;;;;;;;;;;30.40;45.50;;;;;;5054948;28;19912;-77
2022/04/15 12:15:36;;;;;;;;;;;30.50;45.10;;;;;;5054990;28;19909;-78
2022/04/15 12:18:02;;;;;;;;;;;30.40;44.50;;;;;;5054937;28;19905;-76
2022/04/15 12:20:29;;;;;;;;;;;30.40;45.60;;;;;;5055118;28;19904;-80
2022/04/15 12:22:58;;;;;;;;;;;31.70;44.40;;;;;;5054765;28;19904;-79
2022/04/15 12:25:23;;;;;;;;;;;31.40;43.70;;;;;;5054825;28;19951;-78
2022/04/15 12:27:49;;;;;;;;;;;31.10;44.10;;;;;;5054663;28;19909;-78
2022/04/15 12:30:34;;;;;;;;;;;30.60;44.90;;;;;;5054649;28;19966;-78
2022/04/15 12:33:07;;;;;;;;;;;30.10;44.40;;;;;;5054496;28;19947;-79
2022/04/15 12:35:33;;;;;;;;;;;30.00;45.10;;;;;;5053960;28;19920;-78
2022/04/15 12:38:00;;;;;;;;;;;30.00;44.60;;;;;;5053253;28;19909;-77
2022/04/15 12:40:30;;;;;;;;;;;29.60;44.40;;;;;;5053710;28;19971;-78
2022/04/15 12:42:57;;;;;;;;;;;29.70;44.70;;;;;;5054839;28;20282;-78
2022/04/15 12:45:23;;;;;;;;;;;30.50;44.10;;;;;;5054552;28;19908;-76
2022/04/15 12:47:57;;;;;;;;;;;31.30;44.10;;;;;;5054630;28;19955;-77
2022/04/15 12:50:25;;;;;;;;;;;32.70;43.00;;;;;;5054259;28;19962;-79
2022/04/15 12:52:52;;;;;;;;;;;43.40;38.80;;;;;;5054218;28;19916;-81
2022/04/15 12:55:25;;;;;;;;;;;50.10;33.50;;;;;;5054213;28;19966;-77
2022/04/15 12:57:51;;;;;;;;;;;51.20;29.90;;;;;;5054164;28;19909;-76
2022/04/15 13:00:17;;;;;;;;;;;45.60;30.00;;;;;;5054097;28;19911;-76
2022/04/15 13:02:42;;;;;;;;;;;42.90;32.50;;;;;;5054056;28;19904;-78
2022/04/15 13:05:08;;;;;;;;;;;45.90;30.00;;;;;;5054098;28;19915;-77
2022/04/15 13:07:34;;;;;;;;;;;46.60;32.20;;;;;;5053971;28;19904;-75
2022/04/15 13:10:00;;;;;;;;;;;45.60;28.80;;;;;;5052529;28;19911;-76
2022/04/15 13:12:26;;;;;;;;;;;40.60;31.00;;;;;;5053836;28;19992;-78
2022/04/15 13:14:53;;;;;;;;;;;36.70;35.30;;;;;;5053851;28;20329;-79
2022/04/15 13:17:19;;;;;;;;;;;38.80;36.20;;;;;;5054085;28;19951;-78
2022/04/15 13:19:45;;;;;;;;;;;38.40;34.20;;;;;;5053778;28;19927;-79
2022/04/15 13:22:11;;;;;;;;;;;37.30;34.90;;;;;;5053871;28;19912;-76
2022/04/15 13:24:37;;;;;;;;;;;34.30;36.90;;;;;;5053812;28;20012;-78
2022/04/15 13:27:03;;;;;;;;;;;32.00;40.60;;;;;;5053862;28;19940;-78
2022/04/15 13:29:29;;;;;;;;;;;31.60;40.30;;;;;;5053648;28;19904;-77
2022/04/15 13:31:55;;;;;;;;;;;31.40;40.50;;;;;;5053643;28;19912;-78
2022/04/15 13:34:20;;;;;;;;;;;30.90;42.30;;;;;;5053430;28;20388;-78
2022/04/15 13:36:46;;;;;;;;;;;30.40;43.20;;;;;;5053955;28;19904;-78
2022/04/15 13:39:12;;;;;;;;;;;31.70;42.90;;;;;;5053559;28;19905;-79
2022/04/15 13:41:37;;;;;;;;;;;42.00;37.20;;;;;;5053747;28;19905;-79
2022/04/15 13:44:03;;;;;;;;;;;42.50;31.30;;;;;;5053518;28;19904;-78
2022/04/15 13:46:29;;;;;;;;;;;38.20;34.30;;;;;;5053884;28;20368;-76
2022/04/15 13:48:54;;;;;;;;;;;35.30;36.60;;;;;;5053649;28;20368;-79
2022/04/15 13:51:20;;;;;;;;;;;34.90;39.10;;;;;;5055429;28;19916;-78
2022/04/15 13:56:41;;;;;;;;;;;44.50;32.80;;;;;;5057323;28;20456;-78
2022/04/15 13:59:13;;;;;;;;;;;47.30;31.70;;;;;;5057802;28;19905;-79
2022/04/15 14:01:40;;;;;;;;;;;49.10;30.10;;;;;;5056118;28;19905;-79
2022/04/15 14:04:08;;;;;;;;;;;48.40;30.20;;;;;;5057392;28;19911;-77
2022/04/15 14:06:34;;;;;;;;;;;49.20;30.10;;;;;;5057517;28;19908;-78
2022/04/15 14:08:59;;;;;;;;;;;49.00;29.20;;;;;;5057424;28;19912;-79
2022/04/15 14:11:25;;;;;;;;;;;47.10;29.70;;;;;;5057139;28;19970;-78
2022/04/15 14:13:51;;;;;;;;;;;42.00;30.00;;;;;;5057234;28;19905;-78
2022/04/15 14:16:17;;;;;;;;;;;37.00;33.70;;;;;;5055943;28;20416;-76
2022/04/15 14:18:42;;;;;;;;;;;35.90;35.90;;;;;;5057250;28;20353;-78